Time;durP1;ratioP1;P1;durP2;ratioP2;P2;SDS_P1;SDS_P2;PMS_P1;PMS_P2;Temp;Humidity;BMP_temperature;BMP_pressure;BME280_temperature;BME280_humidity;BME280_pressure;Samples;Min_cycle;Max_cycle;Signal;HPM_P1;HPM_P2
2021/09/09 00:01:42;;;;;;;9.50;6.15;;;18.70;99.90;;;;;;5093715;28;20031;-71
2021/09/09 00:04:08;;;;;;;11.20;6.75;;;18.70;99.90;;;;;;5093140;28;20036;-71
2021/09/09 00:06:34;;;;;;;10.85;6.40;;;18.70;99.90;;;;;;5094526;28;20042;-72
2021/09/09 00:09:00;;;;;;;11.60;6.35;;;18.60;99.90;;;;;;5093337;28;20051;-71
2021/09/09 00:11:26;;;;;;;9.25;6.18;;;18.40;99.90;;;;;;5094286;28;20417;-71
2021/09/09 00:13:52;;;;;;;12.60;7.45;;;18.50;99.90;;;;;;5092925;28;20115;-70
2021/09/09 00:16:18;;;;;;;10.57;6.65;;;18.30;99.90;;;;;;5092803;28;20140;-71
2021/09/09 00:18:44;;;;;;;11.75;6.85;;;18.20;99.90;;;;;;5092939;28;20134;-71
2021/09/09 00:21:10;;;;;;;12.02;7.47;;;18.20;99.90;;;;;;5094238;28;20097;-71
2021/09/09 00:23:36;;;;;;;10.35;6.78;;;18.20;99.90;;;;;;5094433;28;20089;-71
2021/09/09 00:26:04;;;;;;;10.48;6.25;;;18.10;99.90;;;;;;5094013;28;20032;-71
2021/09/09 00:28:30;;;;;;;11.23;6.80;;;18.00;99.90;;;;;;5093903;28;20036;-71
2021/09/09 00:30:56;;;;;;;10.90;6.70;;;18.00;99.90;;;;;;5094227;28;20028;-71
2021/09/09 00:33:22;;;;;;;13.25;7.13;;;18.10;99.90;;;;;;5093755;28;20545;-71
2021/09/09 00:35:48;;;;;;;12.82;7.68;;;18.20;99.90;;;;;;5094169;28;20133;-71
2021/09/09 00:38:14;;;;;;;11.10;7.13;;;18.20;99.90;;;;;;5093884;28;20032;-71
2021/09/09 00:40:40;;;;;;;10.95;7.72;;;18.30;99.90;;;;;;5094059;28;20111;-71
2021/09/09 00:43:06;;;;;;;14.35;7.68;;;18.20;99.90;;;;;;5093579;28;20592;-71
2021/09/09 00:45:32;;;;;;;15.23;7.85;;;18.10;99.90;;;;;;5092174;28;20068;-71
2021/09/09 00:47:58;;;;;;;12.75;7.10;;;18.20;99.90;;;;;;5093779;28;20059;-71
2021/09/09 00:50:24;;;;;;;9.32;6.35;;;18.30;99.90;;;;;;5093778;28;20028;-71
2021/09/09 00:52:51;;;;;;;12.90;7.00;;;18.30;99.90;;;;;;5092299;28;20040;-71
2021/09/09 00:55:18;;;;;;;13.65;7.43;;;18.40;99.90;;;;;;5093027;28;20200;-71
2021/09/09 00:57:45;;;;;;;13.60;8.10;;;18.30;99.90;;;;;;5093726;28;20039;-71
2021/09/09 01:00:13;;;;;;;12.55;7.28;;;18.30;99.90;;;;;;5091925;28;20064;-71
2021/09/09 01:02:39;;;;;;;12.45;7.32;;;18.00;99.90;;;;;;5093232;28;20034;-71
2021/09/09 01:05:07;;;;;;;9.05;6.40;;;17.80;99.90;;;;;;5093543;28;20032;-71
2021/09/09 01:07:33;;;;;;;10.75;7.40;;;17.80;99.90;;;;;;5075150;28;20527;-71
2021/09/09 01:09:59;;;;;;;10.57;7.18;;;17.80;99.90;;;;;;5092074;28;20040;-71
2021/09/09 01:12:26;;;;;;;10.93;7.82;;;17.90;99.90;;;;;;5092126;28;20037;-72
2021/09/09 01:14:52;;;;;;;13.15;7.10;;;17.90;99.90;;;;;;5093086;28;20052;-72
2021/09/09 01:17:18;;;;;;;12.45;8.02;;;18.00;99.90;;;;;;5093211;28;20420;-71
2021/09/09 01:19:44;;;;;;;12.68;7.30;;;18.00;99.90;;;;;;5092149;28;20028;-71
2021/09/09 01:22:10;;;;;;;11.00;7.03;;;18.10;99.90;;;;;;5093228;28;20043;-71
2021/09/09 01:24:36;;;;;;;15.25;7.55;;;17.90;99.90;;;;;;5093055;28;20080;-72
2021/09/09 01:27:07;;;;;;;13.77;8.30;;;18.10;99.90;;;;;;5093165;28;20036;-71
2021/09/09 01:29:38;;;;;;;;;;;18.00;99.90;;;;;;5080750;28;20032;-72
2021/09/09 01:32:06;;;;;;;11.68;7.53;;;18.00;99.90;;;;;;5072912;28;19967;-72
2021/09/09 01:34:33;;;;;;;14.68;7.88;;;18.00;99.90;;;;;;5088018;28;20032;-72
2021/09/09 01:36:59;;;;;;;13.15;7.03;;;18.10;99.90;;;;;;5072748;28;20032;-71
2021/09/09 01:39:29;;;;;;;11.25;7.30;;;18.10;99.90;;;;;;5087780;28;20031;-72
2021/09/09 01:41:57;;;;;;;10.60;7.13;;;17.90;99.90;;;;;;5071955;28;20031;-71
2021/09/09 01:44:24;;;;;;;12.38;7.60;;;17.80;99.90;;;;;;5071478;28;20083;-71
2021/09/09 01:46:50;;;;;;;16.17;8.48;;;17.90;99.90;;;;;;5072585;28;20024;-71
2021/09/09 01:49:18;;;;;;;14.15;7.63;;;17.70;99.90;;;;;;5072562;28;20032;-71
2021/09/09 01:51:45;;;;;;;12.82;7.30;;;17.60;99.90;;;;;;5071116;28;20034;-71
2021/09/09 01:54:11;;;;;;;14.90;6.63;;;17.50;99.90;;;;;;5072505;28;20072;-71
2021/09/09 01:56:37;;;;;;;12.68;7.45;;;17.30;99.90;;;;;;5071916;28;20056;-71
2021/09/09 01:59:04;;;;;;;12.02;7.45;;;17.20;99.90;;;;;;5071994;28;20028;-71
2021/09/09 02:01:29;;;;;;;13.02;8.02;;;17.20;99.90;;;;;;5072247;28;20040;-71
2021/09/09 02:03:55;;;;;;;12.20;7.10;;;17.30;99.90;;;;;;5071642;28;20058;-71
2021/09/09 02:06:22;;;;;;;15.25;7.57;;;17.20;99.90;;;;;;5071932;28;20040;-71
2021/09/09 02:08:48;;;;;;;14.20;7.78;;;17.20;99.90;;;;;;5070865;28;20082;-71
2021/09/09 02:11:13;;;;;;;13.23;8.15;;;17.10;99.90;;;;;;5054115;28;20032;-71
2021/09/09 02:13:39;;;;;;;15.75;8.25;;;17.30;99.90;;;;;;5072278;28;20032;-71
2021/09/09 02:16:06;;;;;;;16.23;7.72;;;17.50;99.90;;;;;;5071878;28;20138;-71
2021/09/09 02:18:32;;;;;;;13.45;8.38;;;17.40;99.90;;;;;;5070608;28;20385;-71
2021/09/09 02:20:58;;;;;;;13.02;7.78;;;17.50;99.90;;;;;;5070751;28;20021;-71
2021/09/09 02:23:24;;;;;;;13.25;8.80;;;17.30;99.90;;;;;;5071299;28;20032;-71
2021/09/09 02:25:50;;;;;;;11.68;7.93;;;17.30;99.90;;;;;;5070640;28;20036;-71
2021/09/09 02:28:16;;;;;;;16.35;8.60;;;17.20;99.90;;;;;;5071743;28;20024;-71
2021/09/09 02:30:42;;;;;;;13.45;7.75;;;17.00;99.90;;;;;;5071815;28;20033;-72
2021/09/09 02:33:08;;;;;;;14.10;8.18;;;17.10;99.90;;;;;;5071931;28;20427;-72
2021/09/09 02:35:34;;;;;;;13.48;8.32;;;17.00;99.90;;;;;;5070435;28;20392;-72
2021/09/09 02:38:00;;;;;;;13.35;8.40;;;17.00;99.90;;;;;;5071900;28;20170;-72
2021/09/09 02:40:26;;;;;;;12.63;7.75;;;17.10;99.90;;;;;;5070360;28;20107;-72
2021/09/09 02:42:52;;;;;;;17.67;8.82;;;17.20;99.90;;;;;;5072129;28;20024;-72
2021/09/09 02:45:18;;;;;;;13.07;8.65;;;17.10;99.90;;;;;;5071577;28;20047;-72
2021/09/09 02:47:44;;;;;;;14.73;8.05;;;17.10;99.90;;;;;;5072036;28;20029;-73
2021/09/09 02:50:10;;;;;;;11.45;8.18;;;17.10;99.90;;;;;;5070752;28;20086;-71
2021/09/09 02:52:36;;;;;;;17.15;8.77;;;17.00;99.90;;;;;;5071579;28;20033;-72
2021/09/09 02:55:03;;;;;;;13.45;8.05;;;17.00;99.90;;;;;;5086412;28;20040;-71
2021/09/09 02:57:29;;;;;;;14.30;7.80;;;17.10;99.90;;;;;;5092089;28;20082;-72
2021/09/09 02:59:55;;;;;;;13.40;8.20;;;17.10;99.90;;;;;;5091288;28;20032;-71
2021/09/09 03:02:21;;;;;;;13.90;7.95;;;17.00;99.90;;;;;;5091836;28;20028;-72
2021/09/09 03:04:46;;;;;;;14.15;8.00;;;16.90;99.90;;;;;;5092036;28;20050;-72
2021/09/09 03:07:12;;;;;;;14.18;8.50;;;16.90;99.90;;;;;;5090866;28;20032;-72
2021/09/09 03:09:38;;;;;;;14.13;7.55;;;16.90;99.90;;;;;;5073585;28;20060;-72
2021/09/09 03:12:04;;;;;;;12.88;8.45;;;16.70;99.90;;;;;;5090532;28;20036;-71
2021/09/09 03:14:30;;;;;;;13.23;8.23;;;16.70;99.90;;;;;;5090246;28;20115;-71
2021/09/09 03:16:56;;;;;;;12.52;8.02;;;16.60;99.90;;;;;;5092060;28;20112;-72
2021/09/09 03:19:22;;;;;;;15.98;8.07;;;16.60;99.90;;;;;;5095161;28;20055;-72
2021/09/09 03:21:47;;;;;;;14.45;8.30;;;16.50;99.90;;;;;;5095161;28;20072;-72
2021/09/09 03:24:13;;;;;;;16.17;8.20;;;16.60;99.90;;;;;;5095572;28;20028;-72
2021/09/09 03:26:39;;;;;;;11.75;8.05;;;16.70;99.90;;;;;;5093936;28;20070;-72
2021/09/09 03:29:05;;;;;;;15.93;8.52;;;16.60;99.90;;;;;;5095068;28;20032;-71
2021/09/09 03:31:31;;;;;;;12.57;8.07;;;16.60;99.90;;;;;;5093727;28;20560;-71
2021/09/09 03:33:57;;;;;;;14.45;7.63;;;16.70;99.90;;;;;;5093915;28;20397;-71
2021/09/09 03:36:23;;;;;;;12.98;8.75;;;16.60;99.90;;;;;;5077075;28;20036;-71
2021/09/09 03:38:49;;;;;;;14.93;8.40;;;16.40;99.90;;;;;;5095030;28;20107;-72
2021/09/09 03:41:15;;;;;;;13.95;8.98;;;16.40;99.90;;;;;;5095247;28;20449;-71
2021/09/09 03:43:40;;;;;;;13.95;8.20;;;16.50;99.90;;;;;;5095085;28;20047;-72
2021/09/09 03:46:06;;;;;;;12.63;8.80;;;16.50;99.90;;;;;;5095111;28;20545;-71
2021/09/09 03:48:32;;;;;;;15.23;9.00;;;16.50;99.90;;;;;;5093388;28;20032;-72
2021/09/09 03:50:58;;;;;;;13.57;8.27;;;16.60;99.90;;;;;;5089327;28;20057;-69
2021/09/09 03:53:24;;;;;;;13.88;9.52;;;16.40;99.90;;;;;;5082992;28;20037;-69
2021/09/09 03:55:49;;;;;;;16.38;9.40;;;16.30;99.90;;;;;;5072993;28;20060;-69
2021/09/09 03:58:15;;;;;;;11.48;7.75;;;16.40;99.90;;;;;;5074327;28;20488;-68
2021/09/09 04:00:41;;;;;;;13.52;8.40;;;16.50;99.90;;;;;;5078201;28;20059;-67
2021/09/09 04:03:07;;;;;;;16.48;8.57;;;16.50;99.90;;;;;;5074166;28;20033;-67
2021/09/09 04:05:32;;;;;;;18.60;8.65;;;16.40;99.90;;;;;;5073912;28;20039;-68
2021/09/09 04:07:59;;;;;;;12.82;8.20;;;16.50;99.90;;;;;;5074412;28;20063;-68
2021/09/09 04:10:24;;;;;;;14.13;9.05;;;16.50;99.90;;;;;;5074221;28;20028;-68
2021/09/09 04:12:51;;;;;;;12.27;8.35;;;16.70;99.90;;;;;;5074360;28;20031;-68
2021/09/09 04:15:16;;;;;;;12.65;8.07;;;16.80;99.90;;;;;;5072644;28;20044;-67
2021/09/09 04:17:42;;;;;;;15.45;9.45;;;16.90;99.90;;;;;;5074174;28;20549;-68
2021/09/09 04:20:09;;;;;;;14.75;8.82;;;16.80;99.90;;;;;;5072938;28;20036;-68
2021/09/09 04:22:36;;;;;;;28.15;16.77;;;16.90;99.90;;;;;;5092469;28;20032;-66
2021/09/09 04:25:04;;;;;;;21.75;10.95;;;16.80;99.90;;;;;;5094059;28;20118;-67
2021/09/09 04:27:31;;;;;;;24.63;14.85;;;16.90;99.90;;;;;;5093834;28;20028;-68
2021/09/09 04:29:58;;;;;;;30.40;17.48;;;17.00;99.90;;;;;;5091582;28;20028;-66
2021/09/09 04:32:24;;;;;;;21.73;11.70;;;16.90;99.90;;;;;;5075775;28;20028;-66
2021/09/09 04:34:50;;;;;;;18.83;10.63;;;17.10;99.90;;;;;;5093912;28;20032;-67
2021/09/09 04:37:17;;;;;;;15.45;9.95;;;17.10;99.90;;;;;;5094019;28;20388;-58
2021/09/09 04:39:43;;;;;;;17.50;11.00;;;16.90;99.90;;;;;;5094021;28;20028;-59
2021/09/09 04:42:08;;;;;;;28.83;19.95;;;16.90;99.90;;;;;;5093697;28;20024;-59
2021/09/09 04:44:34;;;;;;;18.00;9.48;;;16.60;99.90;;;;;;5093555;28;20426;-58
2021/09/09 04:47:00;;;;;;;38.58;24.58;;;16.70;99.90;;;;;;5092433;28;20067;-58
2021/09/09 04:49:26;;;;;;;13.13;8.35;;;16.70;99.90;;;;;;5093453;28;20063;-59
2021/09/09 04:51:52;;;;;;;13.80;8.98;;;16.50;99.90;;;;;;5080680;28;20032;-58
2021/09/09 04:54:18;;;;;;;17.92;9.70;;;16.40;99.90;;;;;;5073497;28;20029;-60
2021/09/09 04:56:43;;;;;;;17.15;10.57;;;16.60;99.90;;;;;;5073046;28;20728;-59
2021/09/09 04:59:09;;;;;;;18.30;10.10;;;16.70;99.90;;;;;;5072369;28;20055;-59
2021/09/09 05:01:35;;;;;;;21.90;10.40;;;16.90;99.90;;;;;;5073279;28;20040;-58
2021/09/09 05:04:00;;;;;;;18.80;10.18;;;16.90;99.90;;;;;;5073102;28;20028;-58
2021/09/09 05:06:26;;;;;;;16.67;9.65;;;17.00;99.90;;;;;;5073076;28;20036;-58
2021/09/09 05:08:52;;;;;;;19.40;9.68;;;17.10;99.90;;;;;;5073311;28;20028;-60
2021/09/09 05:11:17;;;;;;;19.88;10.73;;;17.10;99.90;;;;;;5073126;28;20024;-59
2021/09/09 05:13:44;;;;;;;14.10;9.57;;;17.10;99.90;;;;;;5072766;28;20499;-59
2021/09/09 05:16:10;;;;;;;15.43;9.95;;;16.80;99.90;;;;;;5072613;28;20421;-59
2021/09/09 05:18:37;;;;;;;13.18;8.63;;;16.40;99.90;;;;;;5071783;28;20040;-59
2021/09/09 05:21:02;;;;;;;16.38;9.95;;;16.30;99.90;;;;;;5077866;28;20035;-69
2021/09/09 05:23:28;;;;;;;15.57;9.60;;;16.50;99.90;;;;;;5072673;28;20029;-69
2021/09/09 05:25:54;;;;;;;17.30;10.45;;;16.30;99.90;;;;;;5071344;28;20029;-69
2021/09/09 05:28:20;;;;;;;16.98;9.60;;;16.50;99.90;;;;;;5072883;28;20043;-69
2021/09/09 05:30:46;;;;;;;20.27;9.88;;;16.70;99.90;;;;;;5072423;28;20032;-69
2021/09/09 05:33:12;;;;;;;18.02;9.38;;;16.40;99.90;;;;;;5072809;28;20411;-70
2021/09/09 05:35:44;;;;;;;17.92;10.07;;;16.50;99.90;;;;;;5072615;28;20025;-69
2021/09/09 05:38:10;;;;;;;21.77;10.60;;;16.70;99.90;;;;;;5072612;28;20040;-70
2021/09/09 05:40:36;;;;;;;20.08;11.07;;;16.90;99.90;;;;;;5072062;28;20029;-69
2021/09/09 05:43:02;;;;;;;19.58;10.43;;;17.20;99.90;;;;;;5071444;28;20025;-69
2021/09/09 05:45:28;;;;;;;18.83;10.73;;;17.30;99.90;;;;;;5072466;28;20086;-57
2021/09/09 05:47:54;;;;;;;20.52;11.20;;;17.30;99.90;;;;;;5072844;28;20556;-55
2021/09/09 05:50:20;;;;;;;16.60;11.32;;;17.30;99.90;;;;;;5072455;28;20037;-57
2021/09/09 05:52:46;;;;;;;16.35;9.70;;;17.10;99.90;;;;;;5072366;28;20032;-57
2021/09/09 05:55:13;;;;;;;18.42;11.15;;;17.30;99.90;;;;;;5072379;28;20078;-57
2021/09/09 05:57:39;;;;;;;20.58;11.57;;;17.40;99.90;;;;;;5070926;28;20074;-55
2021/09/09 06:00:08;;;;;;;18.77;10.15;;;17.20;99.90;;;;;;5072117;28;20458;-58
2021/09/09 06:02:40;;;;;;;18.63;10.88;;;17.20;99.90;;;;;;5071834;28;20481;-71
2021/09/09 06:05:07;;;;;;;19.88;11.13;;;17.30;99.90;;;;;;5070953;28;20034;-70
2021/09/09 06:07:32;;;;;;;17.35;11.65;;;17.30;99.90;;;;;;5070405;28;20031;-71
2021/09/09 06:09:58;;;;;;;18.20;10.32;;;17.40;99.90;;;;;;5070734;28;20028;-71
2021/09/09 06:12:26;;;;;;;30.65;11.10;;;17.50;99.90;;;;;;5070765;28;20083;-71
2021/09/09 06:14:53;;;;;;;20.00;11.40;;;17.70;99.90;;;;;;5070296;28;20032;-71
2021/09/09 06:17:19;;;;;;;20.05;11.65;;;17.80;99.90;;;;;;5070710;28;20447;-71
2021/09/09 06:19:45;;;;;;;17.35;10.95;;;17.90;99.90;;;;;;5071826;28;20036;-71
2021/09/09 06:22:11;;;;;;;20.27;10.95;;;18.00;99.90;;;;;;5070453;28;20370;-71
2021/09/09 06:24:37;;;;;;;26.77;12.25;;;18.10;99.90;;;;;;5070441;28;20438;-72
2021/09/09 06:27:04;;;;;;;19.20;11.18;;;18.10;99.90;;;;;;5070560;28;20024;-70
2021/09/09 06:29:30;;;;;;;18.58;11.52;;;18.20;99.90;;;;;;5070634;28;20163;-70
2021/09/09 06:31:58;;;;;;;19.00;11.23;;;18.20;99.90;;;;;;5072122;28;20060;-71
2021/09/09 06:34:23;;;;;;;17.02;10.90;;;18.20;99.90;;;;;;5070673;28;20029;-70
2021/09/09 06:36:49;;;;;;;19.77;11.77;;;18.20;99.90;;;;;;5071389;28;20133;-71
2021/09/09 06:39:17;;;;;;;20.35;11.27;;;18.20;99.90;;;;;;5071451;28;20491;-72
2021/09/09 06:41:44;;;;;;;19.38;11.82;;;18.20;99.90;;;;;;5071458;28;20039;-71
2021/09/09 06:44:15;;;;;;;17.48;12.02;;;18.20;99.90;;;;;;5070661;28;20107;-72
2021/09/09 06:46:42;;;;;;;17.30;11.37;;;18.20;99.90;;;;;;5070475;28;20052;-70
2021/09/09 06:49:09;;;;;;;24.92;12.55;;;18.20;99.90;;;;;;5071537;28;20283;-70
2021/09/09 06:51:36;;;;;;;19.20;11.98;;;18.30;99.90;;;;;;5071340;28;20020;-71
2021/09/09 06:54:02;;;;;;;16.90;12.02;;;18.40;99.90;;;;;;5075314;28;20032;-71
2021/09/09 06:56:28;;;;;;;23.80;13.15;;;18.50;99.90;;;;;;5074412;28;20385;-71
2021/09/09 06:58:54;;;;;;;23.63;12.88;;;18.60;99.90;;;;;;5075220;28;20025;-71
2021/09/09 07:01:20;;;;;;;17.33;10.10;;;18.80;99.90;;;;;;5075281;28;20033;-72
2021/09/09 07:03:46;;;;;;;20.88;12.05;;;18.90;99.90;;;;;;5074996;28;20037;-72
2021/09/09 07:06:13;;;;;;;17.08;11.25;;;19.00;99.90;;;;;;5073758;28;20025;-71
2021/09/09 07:08:39;;;;;;;16.30;10.82;;;19.10;99.90;;;;;;5074048;28;20438;-71
2021/09/09 07:11:05;;;;;;;15.60;11.15;;;19.30;99.90;;;;;;5073734;28;20029;-72
2021/09/09 07:13:31;;;;;;;17.35;10.27;;;19.40;99.90;;;;;;5075334;28;20039;-72
2021/09/09 07:15:58;;;;;;;19.65;11.45;;;19.50;99.90;;;;;;5074738;28;20044;-72
2021/09/09 07:18:26;;;;;;;20.65;10.82;;;19.70;99.90;;;;;;5074970;28;20032;-72
2021/09/09 07:20:52;;;;;;;17.65;11.05;;;19.90;99.90;;;;;;5074867;28;20033;-71
2021/09/09 07:23:18;;;;;;;21.95;11.40;;;20.10;99.90;;;;;;5074808;28;20491;-72
2021/09/09 07:25:45;;;;;;;20.33;10.45;;;20.20;99.90;;;;;;5074551;28;20032;-72
2021/09/09 07:28:12;;;;;;;15.13;9.27;;;20.30;99.90;;;;;;5073409;28;20032;-71
2021/09/09 07:30:37;;;;;;;16.80;9.02;;;20.30;99.90;;;;;;5073190;28;20029;-71
2021/09/09 07:33:04;;;;;;;16.02;9.25;;;20.50;99.90;;;;;;5074771;28;20032;-71
2021/09/09 07:35:31;;;;;;;17.45;8.88;;;20.70;99.90;;;;;;5075023;28;20396;-71
2021/09/09 07:37:57;;;;;;;11.77;8.13;;;20.80;99.90;;;;;;5072990;28;20033;-72
2021/09/09 07:40:24;;;;;;;18.02;8.43;;;21.10;99.90;;;;;;5074798;28;20111;-71
2021/09/09 07:42:50;;;;;;;14.88;8.38;;;21.20;99.90;;;;;;5074522;28;20050;-71
2021/09/09 07:45:16;;;;;;;12.90;8.20;;;21.30;99.90;;;;;;5073198;28;20039;-71
2021/09/09 07:47:42;;;;;;;14.50;7.95;;;21.30;99.90;;;;;;5072522;28;20024;-72
2021/09/09 07:50:09;;;;;;;14.85;8.18;;;21.40;99.90;;;;;;5072036;28;20078;-70
2021/09/09 07:52:36;;;;;;;14.82;7.90;;;21.50;99.90;;;;;;5073320;28;20029;-71
2021/09/09 07:55:03;;;;;;;15.30;7.95;;;21.50;99.90;;;;;;5073455;28;20020;-71
2021/09/09 07:57:29;;;;;;;14.32;7.53;;;21.80;99.90;;;;;;5072874;28;20033;-71
2021/09/09 07:59:56;;;;;;;12.93;7.35;;;21.90;99.90;;;;;;5074218;28;20532;-71
2021/09/09 08:02:22;;;;;;;15.52;8.10;;;21.90;99.90;;;;;;5081207;28;20039;-71
2021/09/09 08:04:47;;;;;;;13.30;6.93;;;21.80;99.90;;;;;;5076164;28;20033;-71
2021/09/09 08:07:13;;;;;;;13.50;7.57;;;21.90;99.90;;;;;;5073864;28;20112;-72
2021/09/09 08:09:39;;;;;;;8.95;6.30;;;22.00;99.90;;;;;;5072878;28;20028;-73
2021/09/09 08:12:06;;;;;;;13.25;7.22;;;22.00;99.90;;;;;;5074245;28;20029;-72
2021/09/09 08:14:32;;;;;;;13.13;7.07;;;22.00;99.90;;;;;;5080951;28;20104;-72
2021/09/09 08:16:59;;;;;;;12.10;7.13;;;22.10;99.90;;;;;;5092687;28;20085;-72
2021/09/09 08:19:24;;;;;;;15.48;7.30;;;22.00;99.90;;;;;;5092593;28;20028;-72
2021/09/09 08:21:50;;;;;;;10.15;6.90;;;22.10;99.90;;;;;;5092817;28;20032;-71
2021/09/09 08:24:16;;;;;;;12.20;6.70;;;22.20;99.90;;;;;;5094100;28;20415;-71
2021/09/09 08:26:42;;;;;;;16.48;7.72;;;22.40;99.90;;;;;;5092575;28;20063;-72
2021/09/09 08:29:08;;;;;;;13.35;6.78;;;22.40;99.90;;;;;;5094129;28;20384;-71
2021/09/09 08:31:34;;;;;;;15.95;7.50;;;22.60;99.90;;;;;;5093836;28;20032;-71
2021/09/09 08:34:00;;;;;;;11.88;6.88;;;22.70;99.90;;;;;;5092401;28;20032;-71
2021/09/09 08:36:26;;;;;;;14.93;6.75;;;22.70;99.90;;;;;;5093760;28;20040;-71
2021/09/09 08:38:53;;;;;;;13.23;7.13;;;22.70;99.90;;;;;;5092275;28;20128;-71
2021/09/09 08:41:20;;;;;;;11.45;7.22;;;22.80;99.90;;;;;;5093494;28;20381;-73
2021/09/09 08:43:46;;;;;;;11.10;6.28;;;22.80;99.90;;;;;;5093393;28;20039;-71
2021/09/09 08:46:15;;;;;;;9.82;5.85;;;22.70;99.90;;;;;;5092476;28;20036;-72
2021/09/09 08:48:45;;;;;;;10.20;6.47;;;22.90;99.90;;;;;;5092111;28;20385;-72
2021/09/09 08:51:17;;;;;;;10.15;6.47;;;22.90;99.90;;;;;;5093632;28;20085;-72
2021/09/09 08:53:44;;;;;;;9.45;5.88;;;23.00;99.90;;;;;;5093425;28;20032;-72
2021/09/09 08:56:13;;;;;;;9.68;5.82;;;23.10;99.90;;;;;;5092199;28;20049;-72
2021/09/09 08:58:40;;;;;;;9.55;6.38;;;23.20;99.90;;;;;;5092267;28;20481;-71
2021/09/09 09:01:18;;;;;;;12.27;6.95;;;23.40;99.90;;;;;;5093632;28;20044;-71
2021/09/09 09:03:52;;;;;;;12.60;6.20;;;23.40;99.90;;;;;;5072655;28;20035;-73
2021/09/09 09:06:33;;;;;;;9.45;5.70;;;23.20;99.90;;;;;;5072035;28;20026;-72
2021/09/09 09:09:08;;;;;;;15.27;6.82;;;23.20;99.90;;;;;;5072878;28;20107;-73
2021/09/09 09:11:47;;;;;;;11.13;5.60;;;23.30;99.90;;;;;;5071860;28;20032;-72
2021/09/09 09:14:18;;;;;;;9.45;5.43;;;23.50;99.90;;;;;;5072677;28;20033;-72
2021/09/09 09:17:00;;;;;;;8.93;5.93;;;23.70;99.90;;;;;;5070811;28;20128;-71
2021/09/09 09:19:37;;;;;;;11.07;5.53;;;23.70;99.90;;;;;;5071460;28;20039;-71
2021/09/09 09:22:14;;;;;;;8.93;5.72;;;23.90;99.90;;;;;;5072472;28;20071;-71
2021/09/09 09:24:51;;;;;;;11.90;6.15;;;24.00;99.90;;;;;;5071349;28;20025;-72
2021/09/09 09:27:19;;;;;;;12.82;5.50;;;24.00;99.90;;;;;;5072536;28;20040;-71
2021/09/09 09:30:07;;;;;;;12.25;5.97;;;24.20;99.90;;;;;;5072371;28;20036;-72
2021/09/09 09:32:34;;;;;;;9.82;5.47;;;24.50;99.90;;;;;;5072680;28;20041;-73
2021/09/09 09:35:21;;;;;;;9.82;5.78;;;24.50;99.90;;;;;;5054312;28;20028;-72
2021/09/09 09:38:03;;;;;;;9.63;5.60;;;24.60;99.90;;;;;;5071022;28;20490;-73
2021/09/09 09:40:41;;;;;;;12.32;6.75;;;24.60;99.90;;;;;;5071398;28;20533;-71
2021/09/09 09:43:11;;;;;;;8.80;5.70;;;24.70;99.90;;;;;;5071227;28;20550;-71
2021/09/09 09:45:49;;;;;;;9.07;5.70;;;24.70;99.90;;;;;;5071400;28;20036;-72
2021/09/09 09:48:31;;;;;;;10.35;5.60;;;24.80;99.90;;;;;;5072405;28;20182;-72
2021/09/09 09:50:57;;;;;;;14.02;5.88;;;25.10;99.90;;;;;;5071042;28;20511;-71
2021/09/09 09:53:22;;;;;;;10.82;5.45;;;25.10;99.90;;;;;;5071949;28;20106;-71
2021/09/09 09:55:50;;;;;;;11.18;6.10;;;25.20;99.90;;;;;;5072269;28;20072;-62
2021/09/09 09:58:16;;;;;;;10.30;5.60;;;25.40;99.90;;;;;;5072454;28;20449;-62
2021/09/09 10:00:43;;;;;;;12.38;6.25;;;25.70;99.90;;;;;;5072344;28;20068;-62
2021/09/09 10:03:09;;;;;;;12.15;5.32;;;25.80;99.90;;;;;;5072297;28;20052;-62
2021/09/09 10:05:38;;;;;;;12.85;5.80;;;25.80;99.90;;;;;;5072184;28;20064;-62
2021/09/09 10:08:07;;;;;;;11.05;6.00;;;25.80;99.90;;;;;;5072119;28;20025;-63
2021/09/09 10:10:33;;;;;;;11.88;6.10;;;25.90;99.90;;;;;;5072259;28;20039;-62
2021/09/09 10:13:00;;;;;;;9.48;4.75;;;25.90;99.90;;;;;;5079386;28;20028;-62
2021/09/09 10:15:27;;;;;;;11.13;5.22;;;26.00;99.90;;;;;;5090652;28;20052;-61
2021/09/09 10:17:55;;;;;;;6.95;5.13;;;26.10;99.90;;;;;;5090899;28;20025;-62
2021/09/09 10:20:32;;;;;;;8.57;5.25;;;26.20;99.90;;;;;;5091027;28;20433;-62
2021/09/09 10:23:11;;;;;;;8.02;5.20;;;26.50;99.90;;;;;;5091985;28;20114;-64
2021/09/09 10:25:53;;;;;;;14.63;5.05;;;26.70;99.90;;;;;;5081371;28;20052;-62
2021/09/09 10:28:43;;;;;;;7.55;4.50;;;26.40;99.90;;;;;;5076480;28;20050;-62
2021/09/09 10:31:41;;;;;;;7.80;4.72;;;26.40;99.90;;;;;;5076064;28;20123;-62
2021/09/09 10:34:22;;;;;;;8.90;4.50;;;26.30;99.90;;;;;;5072350;28;20041;-63
2021/09/09 10:36:49;;;;;;;8.45;4.60;;;26.40;99.90;;;;;;5075509;28;20482;-64
2021/09/09 10:39:41;;;;;;;8.73;3.97;;;26.60;99.90;;;;;;5075753;28;20542;-63
2021/09/09 10:42:39;;;;;;;6.85;4.32;;;26.90;99.90;;;;;;5079392;28;20060;-71
2021/09/09 10:45:30;;;;;;;8.05;4.38;;;27.00;99.90;;;;;;5092907;28;20097;-71
2021/09/09 10:47:58;;;;;;;9.85;4.40;;;26.90;99.90;;;;;;5093568;28;20074;-70
2021/09/09 10:50:25;;;;;;;10.68;4.80;;;26.70;99.90;;;;;;5093955;28;20032;-70
2021/09/09 10:53:09;;;;;;;8.90;4.80;;;26.30;99.90;;;;;;5095633;28;20035;-70
2021/09/09 10:55:39;;;;;;;12.70;5.07;;;26.20;99.90;;;;;;5094454;28;20036;-70
2021/09/09 10:58:20;;;;;;;9.63;5.30;;;26.10;99.90;;;;;;5094523;28;20035;-69
2021/09/09 11:00:51;;;;;;;9.05;4.78;;;26.40;99.90;;;;;;5095729;28;20032;-71
2021/09/09 11:03:49;;;;;;;15.02;5.85;;;26.60;99.90;;;;;;5094467;28;20032;-71
2021/09/09 11:06:23;;;;;;;8.98;4.93;;;26.70;99.90;;;;;;5095095;28;20405;-70
2021/09/09 11:08:53;;;;;;;10.95;4.20;;;26.90;99.90;;;;;;5094423;28;20443;-70
2021/09/09 11:11:28;;;;;;;7.88;4.10;;;27.10;99.90;;;;;;5092260;28;20481;-70
2021/09/09 11:14:10;;;;;;;8.48;4.65;;;27.20;99.90;;;;;;5087695;28;20032;-70
2021/09/09 11:16:38;;;;;;;8.85;4.28;;;27.30;99.30;;;;;;5074952;28;20048;-71
2021/09/09 11:19:07;;;;;;;10.75;4.75;;;27.40;99.80;;;;;;5073931;28;20044;-70
2021/09/09 11:21:41;;;;;;;8.70;4.32;;;27.50;98.90;;;;;;5087138;28;20063;-69
2021/09/09 11:24:12;;;;;;;7.90;4.95;;;27.40;99.50;;;;;;5094222;28;20032;-71
2021/09/09 11:26:42;;;;;;;9.02;5.38;;;27.30;99.80;;;;;;5095365;28;20107;-70
2021/09/09 11:29:08;;;;;;;6.68;4.22;;;27.60;99.90;;;;;;5094901;28;20067;-70
2021/09/09 11:31:56;;;;;;;7.70;4.63;;;28.00;99.20;;;;;;5095235;28;20097;-70
2021/09/09 11:34:26;;;;;;;8.70;4.82;;;27.90;98.70;;;;;;5076652;28;20473;-70
2021/09/09 11:36:55;;;;;;;9.20;4.60;;;28.00;98.80;;;;;;5093785;28;20481;-69
2021/09/09 11:39:23;;;;;;;9.15;4.38;;;28.30;98.20;;;;;;5094627;28;20476;-70
2021/09/09 11:41:54;;;;;;;6.05;4.07;;;28.40;97.70;;;;;;5095332;28;20042;-70
2021/09/09 11:44:26;;;;;;;;;;;28.40;97.80;;;;;;5095290;28;20031;-70
2021/09/09 11:46:53;;;;;;;8.55;4.63;;;28.40;97.80;;;;;;5080682;28;19916;-70
2021/09/09 11:49:22;;;;;;;6.95;4.05;;;28.50;97.90;;;;;;5073305;28;20029;-70
2021/09/09 11:51:54;;;;;;;10.27;4.65;;;28.70;97.90;;;;;;5074447;28;20029;-71
2021/09/09 11:54:26;;;;;;;9.45;4.85;;;28.90;97.80;;;;;;5073328;28;20081;-71
2021/09/09 11:57:13;;;;;;;11.95;5.47;;;28.60;98.50;;;;;;5074399;28;20028;-70
2021/09/09 11:59:54;;;;;;;6.63;4.72;;;28.60;98.70;;;;;;5092126;28;20028;-70
2021/09/09 12:02:33;;;;;;;8.02;4.05;;;28.80;98.40;;;;;;5093250;28;20060;-70
2021/09/09 12:05:07;;;;;;;9.82;4.30;;;28.90;97.70;;;;;;5093158;28;20055;-70
2021/09/09 12:07:34;;;;;;;6.43;4.15;;;28.60;97.80;;;;;;5093094;28;20042;-69
2021/09/09 12:10:06;;;;;;;6.55;4.00;;;28.90;97.90;;;;;;5088750;28;20036;-69
2021/09/09 12:12:34;;;;;;;7.97;4.82;;;29.20;98.10;;;;;;5084825;28;20040;-70
2021/09/09 12:15:11;;;;;;;7.50;5.38;;;29.60;97.20;;;;;;5081562;28;20033;-69
2021/09/09 12:17:40;;;;;;;14.30;4.28;;;29.60;97.10;;;;;;5072860;28;20036;-69
2021/09/09 12:20:10;;;;;;;6.45;4.03;;;29.40;97.50;;;;;;5075447;28;20111;-69
2021/09/09 12:22:53;;;;;;;15.55;4.55;;;29.50;97.30;;;;;;5090715;28;20085;-69
2021/09/09 12:25:27;;;;;;;7.40;3.92;;;29.40;97.00;;;;;;5073682;28;20520;-69
2021/09/09 12:28:04;;;;;;;8.95;4.10;;;28.90;97.70;;;;;;5073580;28;20481;-69
2021/09/09 12:30:44;;;;;;;8.65;3.72;;;28.50;98.30;;;;;;5072291;28;20044;-70
2021/09/09 12:33:19;;;;;;;8.20;3.10;;;28.60;98.20;;;;;;5088827;28;20491;-70
2021/09/09 12:36:14;;;;;;;9.32;3.88;;;29.80;97.00;;;;;;5078903;28;20501;-71
2021/09/09 12:38:51;;;;;;;7.75;3.70;;;30.30;95.80;;;;;;5073672;28;20025;-70
2021/09/09 12:41:17;;;;;;;8.90;3.85;;;30.00;95.70;;;;;;5073598;28;20039;-69
2021/09/09 12:43:51;;;;;;;8.95;3.63;;;29.70;96.00;;;;;;5072163;28;20025;-70
2021/09/09 12:46:37;;;;;;;6.25;3.17;;;29.20;96.50;;;;;;5072442;28;20036;-69